createdAt,value
2023-03-15T00:00:42.521Z,1.42
2023-03-15T00:02:59.812Z,1.41
2023-03-15T00:05:16.803Z,1.39
2023-03-15T00:07:34.072Z,1.35
2023-03-15T00:09:51.007Z,1.35
2023-03-15T00:12:07.994Z,1.32
2023-03-15T00:14:24.977Z,1.28
2023-03-15T00:16:42.216Z,1.26
2023-03-15T00:18:59.300Z,1.27
2023-03-15T00:21:16.591Z,1.30
2023-03-15T00:23:33.836Z,1.32
2023-03-15T00:25:51.790Z,1.30
2023-03-15T00:28:09.050Z,1.33
2023-03-15T00:30:26.083Z,1.30
2023-03-15T00:32:42.990Z,1.31
2023-03-15T00:34:59.932Z,1.34
2023-03-15T00:37:16.913Z,1.34
2023-03-15T00:39:33.906Z,1.39
2023-03-15T00:41:51.784Z,1.43
2023-03-15T00:44:08.980Z,1.45
2023-03-15T00:46:26.034Z,1.46
2023-03-15T00:48:43.323Z,1.44
2023-03-15T00:51:00.571Z,1.38
2023-03-15T00:53:17.624Z,1.34
2023-03-15T00:55:35.895Z,1.35
2023-03-15T00:57:52.861Z,1.35
2023-03-15T01:00:09.974Z,1.35
2023-03-15T01:02:27.039Z,1.30
2023-03-15T01:04:44.167Z,1.27
2023-03-15T01:07:01.065Z,1.23
2023-03-15T01:09:18.042Z,1.22
2023-03-15T01:11:35.052Z,1.17
2023-03-15T01:13:52.363Z,1.13
2023-03-15T01:16:09.733Z,1.09
2023-03-15T01:18:26.742Z,1.04
2023-03-15T01:20:43.696Z,0.98
2023-03-15T01:23:00.736Z,0.93
2023-03-15T01:25:17.654Z,0.96
2023-03-15T01:27:34.694Z,0.98
2023-03-15T01:29:51.697Z,0.97
2023-03-15T01:32:08.752Z,0.96
2023-03-15T01:34:26.108Z,0.97
2023-03-15T01:36:43.123Z,0.92
2023-03-15T01:39:00.400Z,0.88
2023-03-15T01:41:17.301Z,0.87
2023-03-15T01:43:34.265Z,0.87
2023-03-15T01:45:51.162Z,0.87
2023-03-15T01:48:08.414Z,0.89
2023-03-15T01:50:25.470Z,0.89
2023-03-15T01:52:42.480Z,0.88
2023-03-15T01:54:59.721Z,0.89
2023-03-15T01:57:17.046Z,0.88
2023-03-15T01:59:34.311Z,0.82
2023-03-15T02:01:51.638Z,0.79
2023-03-15T02:04:08.519Z,0.77
2023-03-15T02:06:25.556Z,0.77
2023-03-15T02:08:42.830Z,0.74
2023-03-15T02:10:59.833Z,0.70
2023-03-15T02:13:16.929Z,0.70
2023-03-15T02:15:33.974Z,0.70
2023-03-15T02:17:50.924Z,0.70
2023-03-15T02:20:07.953Z,0.72
2023-03-15T02:22:25.222Z,0.70
2023-03-15T02:24:43.156Z,0.68
2023-03-15T02:27:00.207Z,0.64
2023-03-15T02:29:17.445Z,0.58
2023-03-15T02:31:34.725Z,0.61
2023-03-15T02:33:52.058Z,0.58
2023-03-15T02:36:10.055Z,0.56
2023-03-15T02:38:28.044Z,0.51
2023-03-15T02:40:44.969Z,0.53
2023-03-15T02:43:02.856Z,0.68
2023-03-15T02:45:19.923Z,0.72
2023-03-15T02:47:36.984Z,0.73
2023-03-15T02:49:53.994Z,0.77
2023-03-15T02:52:11.023Z,0.82
2023-03-15T02:54:28.100Z,0.80
2023-03-15T02:56:45.007Z,0.83
2023-03-15T02:59:02.064Z,0.80
2023-03-15T03:01:20.149Z,0.79
2023-03-15T03:03:37.095Z,0.77
2023-03-15T03:05:54.063Z,0.73
2023-03-15T03:08:11.369Z,0.74
2023-03-15T03:10:28.653Z,0.78
2023-03-15T03:12:45.592Z,0.79
2023-03-15T03:15:02.896Z,0.82
2023-03-15T03:17:19.909Z,0.82
2023-03-15T03:19:37.146Z,0.83
2023-03-15T03:21:54.222Z,0.87
2023-03-15T03:24:11.100Z,0.81
2023-03-15T03:26:28.031Z,0.77
2023-03-15T03:28:45.065Z,0.72
2023-03-15T03:31:02.442Z,0.67
2023-03-15T03:33:19.732Z,0.65
2023-03-15T03:35:36.614Z,0.63
2023-03-15T03:37:53.565Z,0.64
2023-03-15T03:40:10.592Z,0.63
2023-03-15T03:42:27.768Z,0.63
2023-03-15T03:44:44.723Z,0.60
2023-03-15T03:47:01.812Z,0.56
2023-03-15T03:49:18.969Z,0.55
2023-03-15T03:51:36.004Z,0.51
2023-03-15T03:53:53.245Z,0.50
2023-03-15T03:56:10.435Z,0.52
2023-03-15T03:58:27.390Z,0.51
2023-03-15T04:00:44.320Z,0.49
2023-03-15T04:03:01.521Z,0.48
2023-03-15T04:05:18.507Z,0.49
2023-03-15T04:07:35.479Z,0.47
2023-03-15T04:09:52.476Z,0.45
2023-03-15T04:12:09.481Z,0.42
2023-03-15T04:14:26.681Z,0.41
2023-03-15T04:16:43.986Z,0.42
2023-03-15T04:19:01.012Z,0.41
2023-03-15T04:21:18.946Z,0.38
2023-03-15T04:23:35.881Z,0.42
2023-03-15T04:25:52.958Z,0.42
2023-03-15T04:28:09.878Z,0.41
2023-03-15T04:30:26.932Z,0.38
2023-03-15T04:32:43.877Z,0.37
2023-03-15T04:35:02.159Z,0.38
2023-03-15T04:37:18.993Z,0.36
2023-03-15T04:39:36.226Z,0.33
2023-03-15T04:41:53.158Z,0.32
2023-03-15T04:44:10.175Z,0.30
2023-03-15T04:46:27.231Z,0.33
2023-03-15T04:48:44.591Z,0.33
2023-03-15T04:51:01.799Z,0.33
2023-03-15T04:53:18.841Z,0.30
2023-03-15T04:55:35.793Z,0.28
2023-03-15T04:57:52.831Z,0.24
2023-03-15T05:00:09.764Z,0.25
2023-03-15T05:02:27.104Z,0.29
2023-03-15T05:04:44.011Z,0.33
2023-03-15T05:07:01.272Z,0.35
2023-03-15T05:09:18.268Z,0.33
2023-03-15T05:11:35.499Z,0.35
2023-03-15T05:13:52.532Z,0.38
2023-03-15T05:16:09.732Z,0.38
2023-03-15T05:18:26.804Z,0.38
2023-03-15T05:20:43.838Z,0.42
2023-03-15T05:23:00.830Z,0.45
2023-03-15T05:25:17.907Z,0.49
2023-03-15T05:27:35.209Z,0.52
2023-03-15T05:29:52.092Z,0.58
2023-03-15T05:32:09.090Z,0.56
2023-03-15T05:34:26.337Z,0.61
2023-03-15T05:36:43.651Z,0.63
2023-03-15T05:39:00.621Z,0.64
2023-03-15T05:41:17.658Z,0.68
2023-03-15T05:43:34.870Z,0.73
2023-03-15T05:45:52.204Z,0.77
2023-03-15T05:48:09.300Z,0.80
2023-03-15T05:50:26.328Z,0.87
2023-03-15T05:52:43.541Z,0.89
2023-03-15T05:55:00.806Z,0.90
2023-03-15T05:57:17.738Z,0.94
2023-03-15T05:59:34.741Z,1.01
2023-03-15T06:01:51.609Z,1.04
2023-03-15T06:04:09.658Z,1.11
2023-03-15T06:06:27.008Z,1.13
2023-03-15T06:08:44.001Z,1.20
2023-03-15T06:11:00.846Z,1.26
2023-03-15T06:13:18.400Z,1.32
2023-03-15T06:15:35.737Z,1.38
2023-03-15T06:17:52.633Z,1.41
2023-03-15T06:20:09.861Z,1.48
2023-03-15T06:22:27.085Z,1.52
2023-03-15T06:24:44.430Z,1.56
2023-03-15T06:27:02.305Z,1.56
2023-03-15T06:29:19.198Z,1.56
2023-03-15T06:31:36.233Z,1.59
2023-03-15T06:33:53.375Z,1.60
2023-03-15T06:36:10.344Z,1.60
2023-03-15T06:38:28.635Z,1.65
2023-03-15T06:40:45.482Z,1.67
2023-03-15T06:43:02.489Z,1.66
2023-03-15T06:45:19.543Z,1.66
2023-03-15T06:47:36.489Z,1.69
2023-03-15T06:49:55.414Z,1.73
2023-03-15T06:52:13.965Z,1.81
2023-03-15T06:54:30.855Z,1.84
2023-03-15T06:56:48.053Z,1.85
2023-03-15T06:59:05.084Z,1.88
2023-03-15T07:01:23.387Z,1.88
2023-03-15T07:03:40.311Z,1.91
2023-03-15T07:05:57.317Z,1.93
2023-03-15T07:08:14.217Z,1.95
2023-03-15T07:10:31.539Z,2.00
2023-03-15T07:12:48.763Z,2.06
2023-03-15T07:15:05.812Z,2.05
2023-03-15T07:17:22.727Z,2.06
2023-03-15T07:19:50.232Z,2.09
2023-03-15T07:22:07.558Z,2.09
2023-03-15T07:24:24.490Z,2.10
2023-03-15T07:26:41.416Z,2.11
2023-03-15T07:28:58.709Z,2.13
2023-03-15T07:31:15.740Z,2.09
2023-03-15T07:33:32.643Z,2.08
2023-03-15T07:35:50.668Z,2.10
2023-03-15T07:38:08.789Z,2.12
2023-03-15T07:40:25.981Z,2.15
2023-03-15T07:42:43.056Z,2.16
2023-03-15T07:45:00.375Z,2.21
2023-03-15T07:47:17.691Z,2.21
2023-03-15T07:49:34.705Z,2.21
2023-03-15T07:51:51.656Z,2.24
2023-03-15T07:54:08.729Z,2.28
2023-03-15T07:56:25.702Z,2.33
2023-03-15T07:58:42.700Z,2.37
2023-03-15T08:01:00.553Z,2.43
2023-03-15T08:03:17.927Z,2.52
2023-03-15T08:05:34.909Z,2.56
2023-03-15T08:07:52.810Z,2.60
2023-03-15T08:10:10.040Z,2.63
2023-03-15T08:12:27.962Z,2.63
2023-03-15T08:14:46.119Z,2.67
2023-03-15T08:17:03.077Z,2.71
2023-03-15T08:19:20.316Z,2.72
2023-03-15T08:21:37.342Z,2.76
2023-03-15T08:23:54.252Z,2.83
2023-03-15T08:26:11.512Z,2.91
2023-03-15T08:28:28.813Z,3.00
2023-03-15T08:30:45.742Z,3.15
2023-03-15T08:33:02.842Z,3.30
2023-03-15T08:35:20.949Z,3.42
2023-03-15T08:37:37.873Z,3.52
2023-03-15T08:39:54.879Z,3.58
2023-03-15T08:42:11.961Z,3.65
2023-03-15T08:44:28.956Z,3.65
2023-03-15T08:46:47.026Z,3.68
2023-03-15T08:49:04.376Z,3.75
2023-03-15T08:51:21.344Z,3.84
2023-03-15T08:53:38.672Z,3.88
2023-03-15T08:55:55.969Z,3.95
2023-03-15T08:58:12.910Z,4.09
2023-03-15T09:00:30.789Z,4.24
2023-03-15T09:02:47.786Z,4.30
2023-03-15T09:05:04.670Z,4.39
2023-03-15T09:07:21.752Z,4.40
2023-03-15T09:09:39.938Z,4.45
2023-03-15T09:11:56.941Z,4.49
2023-03-15T09:14:13.973Z,4.51
2023-03-15T09:16:31.032Z,4.43
2023-03-15T09:18:48.186Z,4.40
2023-03-15T09:21:05.302Z,4.44
2023-03-15T09:23:22.267Z,4.50
2023-03-15T09:25:39.187Z,4.49
2023-03-15T09:27:56.155Z,4.56
2023-03-15T09:30:14.343Z,4.52
2023-03-15T09:32:31.275Z,4.54
2023-03-15T09:34:48.285Z,4.59
2023-03-15T09:37:05.286Z,4.64
2023-03-15T09:39:22.182Z,4.71
2023-03-15T09:41:39.109Z,4.81
2023-03-15T09:43:56.329Z,4.85
2023-03-15T09:46:13.464Z,4.91
2023-03-15T09:48:30.411Z,5.02
2023-03-15T09:50:47.639Z,5.11
2023-03-15T09:53:04.905Z,5.08
2023-03-15T09:55:21.929Z,5.04
2023-03-15T09:57:38.843Z,4.98
2023-03-15T09:59:55.854Z,4.94
2023-03-15T10:02:12.883Z,4.94
2023-03-15T10:04:29.948Z,4.88
2023-03-15T10:06:47.209Z,4.84
2023-03-15T10:09:04.433Z,4.85
2023-03-15T10:11:21.413Z,4.85
2023-03-15T10:13:38.463Z,4.87
2023-03-15T10:15:55.784Z,4.84
2023-03-15T10:18:12.824Z,4.87
2023-03-15T10:20:29.795Z,4.92
2023-03-15T10:22:47.093Z,4.95
2023-03-15T10:25:04.147Z,4.95
2023-03-15T10:27:21.418Z,5.01
2023-03-15T10:29:38.425Z,5.03
2023-03-15T10:31:55.760Z,5.08
2023-03-15T10:34:12.833Z,5.13
2023-03-15T10:36:30.100Z,5.11
2023-03-15T10:38:47.023Z,5.14
2023-03-15T10:41:04.005Z,5.12
2023-03-15T10:43:21.310Z,5.03
2023-03-15T10:45:38.542Z,4.97
2023-03-15T10:48:00.951Z,5.02
2023-03-15T10:50:18.517Z,5.08
2023-03-15T10:52:35.824Z,5.08
2023-03-15T10:54:58.751Z,5.17
2023-03-15T10:57:21.576Z,5.29
2023-03-15T10:59:39.550Z,5.35
2023-03-15T11:01:56.801Z,5.57
2023-03-15T11:04:13.834Z,5.86
2023-03-15T11:06:31.164Z,6.16
2023-03-15T11:08:48.343Z,6.64
2023-03-15T11:11:06.690Z,6.90
2023-03-15T11:13:23.789Z,7.05
2023-03-15T11:15:41.122Z,7.30
2023-03-15T11:17:58.059Z,7.31
2023-03-15T11:20:15.420Z,7.57
2023-03-15T11:22:33.798Z,7.71
2023-03-15T11:24:50.858Z,8.12
2023-03-15T11:27:09.185Z,8.39
2023-03-15T11:29:26.505Z,8.50
2023-03-15T11:31:43.584Z,8.84
2023-03-15T11:34:00.710Z,9.01
2023-03-15T11:36:17.790Z,9.28
2023-03-15T11:38:35.399Z,8.98
2023-03-15T11:40:52.543Z,9.04
2023-03-15T11:43:09.518Z,9.07
2023-03-15T11:45:27.497Z,9.26
2023-03-15T11:47:44.632Z,9.20
2023-03-15T11:50:01.682Z,9.54
2023-03-15T11:52:18.717Z,9.82
2023-03-15T11:54:35.783Z,9.64
2023-03-15T11:56:53.074Z,9.84
2023-03-15T11:59:10.098Z,10.03
2023-03-15T12:01:27.032Z,10.13
2023-03-15T12:03:45.242Z,9.95
2023-03-15T12:06:02.631Z,9.81
2023-03-15T12:08:20.899Z,9.63
2023-03-15T12:10:37.936Z,9.50
2023-03-15T12:12:54.899Z,9.73
2023-03-15T12:15:11.899Z,9.51
2023-03-15T12:17:29.075Z,9.52
2023-03-15T12:19:47.009Z,9.80
2023-03-15T12:22:04.006Z,9.74
2023-03-15T12:24:21.027Z,9.53
2023-03-15T12:26:38.115Z,9.61
2023-03-15T12:28:55.387Z,9.17
2023-03-15T12:31:12.837Z,9.06
2023-03-15T12:33:30.204Z,8.82
2023-03-15T12:35:47.215Z,8.52
2023-03-15T12:38:04.218Z,8.21
2023-03-15T12:40:21.380Z,8.23
2023-03-15T12:42:38.336Z,8.20
2023-03-15T12:44:55.489Z,8.13
2023-03-15T12:47:12.655Z,7.92
2023-03-15T12:49:29.663Z,7.75
2023-03-15T12:51:46.520Z,7.54
2023-03-15T12:54:04.492Z,7.04
2023-03-15T12:56:21.479Z,6.80
2023-03-15T12:58:38.588Z,6.62
2023-03-15T13:00:55.663Z,6.48
2023-03-15T13:03:12.917Z,6.45
2023-03-15T13:05:30.127Z,6.40
2023-03-15T13:07:51.734Z,6.40
2023-03-15T13:10:09.238Z,6.48
2023-03-15T13:12:26.223Z,6.41
2023-03-15T13:14:43.522Z,6.49
2023-03-15T13:17:00.473Z,6.55
2023-03-15T13:19:17.489Z,6.73
2023-03-15T13:21:34.400Z,7.05
2023-03-15T13:23:51.728Z,7.43
2023-03-15T13:26:08.694Z,7.69
2023-03-15T13:28:25.610Z,7.91
2023-03-15T13:30:42.647Z,7.96
2023-03-15T13:32:59.988Z,7.87
2023-03-15T13:35:17.018Z,7.79
2023-03-15T13:37:34.029Z,7.67
2023-03-15T13:39:52.330Z,7.50
2023-03-15T13:42:09.642Z,7.37
2023-03-15T13:44:26.569Z,7.28
2023-03-15T13:46:43.945Z,7.15
2023-03-15T13:49:00.950Z,7.08
2023-03-15T13:51:26.444Z,6.95
2023-03-15T13:53:49.917Z,6.91
2023-03-15T13:56:07.511Z,6.83
2023-03-15T13:58:24.790Z,6.86
2023-03-15T14:00:41.685Z,6.93
2023-03-15T14:02:58.591Z,6.95
2023-03-15T14:05:15.532Z,6.94
2023-03-15T14:07:32.409Z,6.88
2023-03-15T14:09:49.318Z,6.88
2023-03-15T14:12:06.636Z,6.92
2023-03-15T14:14:23.571Z,7.04
2023-03-15T14:16:57.240Z,7.03
2023-03-15T14:19:17.797Z,7.20
2023-03-15T14:21:34.742Z,7.18
2023-03-15T14:23:51.737Z,7.21
2023-03-15T14:26:08.708Z,7.12
2023-03-15T14:28:25.905Z,7.12
2023-03-15T14:30:42.936Z,7.21
2023-03-15T14:33:01.166Z,7.28
2023-03-15T14:35:18.511Z,7.21
2023-03-15T14:37:35.751Z,7.26
2023-03-15T14:39:52.839Z,7.29
2023-03-15T14:42:10.157Z,7.33
2023-03-15T14:44:28.169Z,7.46
2023-03-15T14:46:45.228Z,7.45
2023-03-15T14:49:02.358Z,7.66
2023-03-15T14:51:19.267Z,7.75
2023-03-15T14:53:36.339Z,7.73
2023-03-15T14:55:53.636Z,7.67
2023-03-15T14:58:11.000Z,7.54
2023-03-15T15:00:28.007Z,7.42
2023-03-15T15:02:44.980Z,7.43
2023-03-15T15:05:02.186Z,7.36
2023-03-15T15:07:19.181Z,7.27
2023-03-15T15:09:36.850Z,7.38
2023-03-15T15:11:55.185Z,7.50
2023-03-15T15:14:12.441Z,7.55
2023-03-15T15:16:29.835Z,7.66
2023-03-15T15:18:46.810Z,7.69
2023-03-15T15:21:03.819Z,7.77
2023-03-15T15:23:21.114Z,7.70
2023-03-15T15:25:38.089Z,7.61
2023-03-15T15:27:56.051Z,7.68
2023-03-15T15:30:16.386Z,7.64
2023-03-15T15:32:33.761Z,7.60
2023-03-15T15:34:51.158Z,7.78
2023-03-15T15:37:08.208Z,8.02
2023-03-15T15:39:25.241Z,8.23
2023-03-15T15:41:42.260Z,8.39
2023-03-15T15:43:59.196Z,8.49
2023-03-15T15:46:17.157Z,8.59
2023-03-15T15:48:34.031Z,8.64
2023-03-15T15:50:50.927Z,8.70
2023-03-15T15:53:08.006Z,8.59
2023-03-15T15:55:25.038Z,8.52
2023-03-15T15:57:42.226Z,8.39
2023-03-15T15:59:59.995Z,8.21
2023-03-15T16:02:17.233Z,8.27
2023-03-15T16:04:34.620Z,8.00
2023-03-15T16:06:51.666Z,7.89
2023-03-15T16:09:08.592Z,7.80
2023-03-15T16:11:25.679Z,7.62
2023-03-15T16:13:42.767Z,7.63
2023-03-15T16:16:01.176Z,7.56
2023-03-15T16:18:18.202Z,7.55
2023-03-15T16:20:35.410Z,7.54
2023-03-15T16:22:52.622Z,7.44
2023-03-15T16:25:09.885Z,7.40
2023-03-15T16:27:26.981Z,7.38
2023-03-15T16:29:44.294Z,7.33
2023-03-15T16:32:16.038Z,7.21
2023-03-15T16:34:35.055Z,7.10
2023-03-15T16:36:51.959Z,6.97
2023-03-15T16:39:08.991Z,6.87
2023-03-15T16:41:29.354Z,6.75
2023-03-15T16:43:49.120Z,6.65
2023-03-15T16:46:06.555Z,6.58
2023-03-15T16:48:23.536Z,6.52
2023-03-15T16:50:40.842Z,6.45
2023-03-15T16:52:57.849Z,6.37
2023-03-15T16:55:14.821Z,6.31
2023-03-15T16:57:33.118Z,6.25
2023-03-15T16:59:50.689Z,6.18
2023-03-15T17:02:07.785Z,6.12
2023-03-15T17:04:24.806Z,6.03
2023-03-15T17:06:41.970Z,5.95
2023-03-15T17:08:59.225Z,5.87
2023-03-15T17:11:16.184Z,5.80
2023-03-15T17:13:33.089Z,5.71
2023-03-15T17:15:50.456Z,5.60
2023-03-15T17:18:07.730Z,5.52
2023-03-15T17:20:25.677Z,5.43
2023-03-15T17:22:42.849Z,5.35
2023-03-15T17:25:00.840Z,5.25
2023-03-15T17:27:17.765Z,5.17
2023-03-15T17:29:34.829Z,5.11
2023-03-15T17:31:52.105Z,5.01
2023-03-15T17:34:09.030Z,4.94
2023-03-15T17:36:26.112Z,4.86
2023-03-15T17:38:43.146Z,4.84
2023-03-15T17:41:01.037Z,4.78
2023-03-15T17:43:18.031Z,4.70
2023-03-15T17:45:35.062Z,4.63
2023-03-15T17:47:52.099Z,4.58
2023-03-15T17:50:09.411Z,4.50
2023-03-15T17:52:26.703Z,4.44
2023-03-15T17:54:43.751Z,4.39
2023-03-15T17:57:01.028Z,4.32
2023-03-15T17:59:17.904Z,4.26
2023-03-15T18:01:34.982Z,4.22
2023-03-15T18:03:52.051Z,4.15
2023-03-15T18:06:10.109Z,4.09
2023-03-15T18:08:27.982Z,4.05
2023-03-15T18:10:45.083Z,4.01
2023-03-15T18:13:02.181Z,3.97
2023-03-15T18:15:19.228Z,3.93
2023-03-15T18:17:36.237Z,3.90
2023-03-15T18:19:53.204Z,3.86
2023-03-15T18:22:10.456Z,3.84
2023-03-15T18:24:27.719Z,3.84
2023-03-15T18:26:44.717Z,3.79
2023-03-15T18:29:01.710Z,3.73
2023-03-15T18:31:18.775Z,3.70
2023-03-15T18:33:35.845Z,3.67
2023-03-15T18:35:53.162Z,3.67
2023-03-15T18:38:10.166Z,3.63
2023-03-15T18:40:27.202Z,3.57
2023-03-15T18:42:44.107Z,3.53
2023-03-15T18:45:01.014Z,3.52
2023-03-15T18:47:18.142Z,3.52
2023-03-15T18:49:35.499Z,3.50
2023-03-15T18:51:52.622Z,3.45
2023-03-15T18:54:09.703Z,3.43
2023-03-15T18:56:27.161Z,3.38
2023-03-15T18:58:44.547Z,3.36
2023-03-15T19:01:01.886Z,3.32
2023-03-15T19:03:19.290Z,3.28
2023-03-15T19:05:36.968Z,3.24
2023-03-15T19:07:54.090Z,3.20
2023-03-15T19:10:11.061Z,3.15
2023-03-15T19:12:28.308Z,3.11
2023-03-15T19:14:45.468Z,3.08
2023-03-15T19:17:02.557Z,3.05
2023-03-15T19:19:19.529Z,3.00
2023-03-15T19:21:36.853Z,2.94
2023-03-15T19:23:55.172Z,2.91
2023-03-15T19:26:14.382Z,2.88
2023-03-15T19:28:31.684Z,2.88
2023-03-15T19:30:48.642Z,2.88
2023-03-15T19:33:06.157Z,2.87
2023-03-15T19:35:23.471Z,2.85
2023-03-15T19:37:40.510Z,2.81
2023-03-15T19:39:57.574Z,2.80
2023-03-15T19:42:15.622Z,2.78
2023-03-15T19:44:32.925Z,2.74
2023-03-15T19:46:50.218Z,2.75
2023-03-15T19:49:08.570Z,2.74
2023-03-15T19:51:26.259Z,2.71
2023-03-15T19:53:43.763Z,2.67
2023-03-15T19:56:02.068Z,2.64
2023-03-15T19:58:19.362Z,2.63
2023-03-15T20:00:37.597Z,2.63
2023-03-15T20:02:54.852Z,2.61
2023-03-15T20:05:11.936Z,2.57
2023-03-15T20:07:29.234Z,2.55
2023-03-15T20:09:46.515Z,2.52
2023-03-15T20:12:03.816Z,2.49
2023-03-15T20:14:20.744Z,2.47
2023-03-15T20:16:38.000Z,2.44
2023-03-15T20:18:55.292Z,2.40
2023-03-15T20:21:12.323Z,2.36
2023-03-15T20:23:29.370Z,2.33
2023-03-15T20:25:46.428Z,2.32
2023-03-15T20:28:03.751Z,2.30
2023-03-15T20:30:21.017Z,2.28
2023-03-15T20:32:38.661Z,2.22
2023-03-15T20:34:56.064Z,2.21
2023-03-15T20:37:13.042Z,2.18
2023-03-15T20:39:30.060Z,2.14
2023-03-15T20:41:47.409Z,2.08
2023-03-15T20:44:04.482Z,2.05
2023-03-15T20:46:21.430Z,2.03
2023-03-15T20:48:38.330Z,2.04
2023-03-15T20:50:55.315Z,2.04
2023-03-15T20:53:12.330Z,2.01
2023-03-15T20:55:29.691Z,1.99
2023-03-15T20:57:46.637Z,1.97
2023-03-15T21:00:03.600Z,1.95
2023-03-15T21:02:21.468Z,1.91
2023-03-15T21:04:38.508Z,1.88
2023-03-15T21:06:55.552Z,1.86
2023-03-15T21:09:12.529Z,1.86
2023-03-15T21:11:29.382Z,1.85
2023-03-15T21:13:46.610Z,1.81
2023-03-15T21:16:03.621Z,1.80
2023-03-15T21:18:20.662Z,1.77
2023-03-15T21:20:37.606Z,1.74
2023-03-15T21:22:54.829Z,1.73
2023-03-15T21:25:12.864Z,1.70
2023-03-15T21:27:29.882Z,1.71
2023-03-15T21:29:47.120Z,1.69
2023-03-15T21:32:04.585Z,1.66
2023-03-15T21:34:21.532Z,1.63
2023-03-15T21:36:39.782Z,1.56
2023-03-15T21:38:56.652Z,1.50
2023-03-15T21:41:13.719Z,1.49
2023-03-15T21:43:30.706Z,1.51
2023-03-15T21:45:47.663Z,1.47
2023-03-15T21:48:04.748Z,1.43
2023-03-15T21:50:22.066Z,1.40
2023-03-15T21:52:39.353Z,1.38
2023-03-15T21:54:56.332Z,1.37
2023-03-15T21:57:13.633Z,1.32
2023-03-15T21:59:31.655Z,1.35
2023-03-15T22:01:48.575Z,1.33
2023-03-15T22:04:05.802Z,1.29
2023-03-15T22:06:22.729Z,1.25
2023-03-15T22:08:39.754Z,1.17
2023-03-15T22:10:56.808Z,1.13
2023-03-15T22:13:13.733Z,1.10
2023-03-15T22:15:30.938Z,1.08
2023-03-15T22:17:47.906Z,1.06
2023-03-15T22:20:04.975Z,1.02
2023-03-15T22:22:22.011Z,0.99
2023-03-15T22:24:39.227Z,0.95
2023-03-15T22:26:56.549Z,0.92
2023-03-15T22:29:13.522Z,0.93
2023-03-15T22:31:31.740Z,0.88
2023-03-15T22:33:48.805Z,0.85
2023-03-15T22:36:05.865Z,0.83
2023-03-15T22:38:23.129Z,0.80
2023-03-15T22:40:40.389Z,0.79
2023-03-15T22:42:57.605Z,0.77
2023-03-15T22:45:14.558Z,0.76
2023-03-15T22:47:31.771Z,0.73
2023-03-15T22:49:48.676Z,0.71
2023-03-15T22:52:05.585Z,0.70
2023-03-15T22:54:22.674Z,0.70
2023-03-15T22:56:41.056Z,0.68
2023-03-15T22:58:58.200Z,0.68
2023-03-15T23:01:15.195Z,0.68
2023-03-15T23:03:32.280Z,0.64
2023-03-15T23:05:50.683Z,0.59
2023-03-15T23:08:07.683Z,0.60
2023-03-15T23:10:25.884Z,0.58
2023-03-15T23:12:43.063Z,0.56
2023-03-15T23:14:59.940Z,0.50
2023-03-15T23:17:16.938Z,0.51
2023-03-15T23:19:33.944Z,0.50
2023-03-15T23:21:51.007Z,0.49
2023-03-15T23:24:07.932Z,0.49
2023-03-15T23:26:24.883Z,0.46
2023-03-15T23:28:42.096Z,0.47
2023-03-15T23:30:59.203Z,0.49
2023-03-15T23:33:16.272Z,0.50
2023-03-15T23:35:33.287Z,0.46
2023-03-15T23:37:50.261Z,0.42
2023-03-15T23:40:07.301Z,0.42
2023-03-15T23:42:24.335Z,0.37
2023-03-15T23:44:41.245Z,0.35
2023-03-15T23:46:58.298Z,0.30
2023-03-15T23:49:15.433Z,0.28
2023-03-15T23:51:32.651Z,0.28
2023-03-15T23:53:49.559Z,0.26
2023-03-15T23:56:06.758Z,0.25
2023-03-15T23:58:23.806Z,0.22
